createdAt,value
2018-10-17T00:00:17.696Z,25.08
2018-10-17T00:05:19.956Z,25.08
2018-10-17T00:10:22.277Z,23.30
2018-10-17T00:15:24.565Z,23.27
2018-10-17T00:20:26.856Z,23.65
2018-10-17T00:25:29.217Z,22.22
2018-10-17T00:30:31.477Z,20.45
2018-10-17T00:35:33.770Z,20.10
2018-10-17T00:40:36.120Z,19.73
2018-10-17T00:45:38.321Z,19.73
2018-10-17T00:50:40.629Z,19.95
2018-10-17T00:55:43.125Z,22.13
2018-10-17T01:00:45.380Z,23.30
2018-10-17T01:05:47.628Z,21.37
2018-10-17T01:10:49.897Z,20.88
2018-10-17T01:15:52.146Z,20.27
2018-10-17T01:20:54.441Z,21.68
2018-10-17T01:25:56.787Z,19.25
2018-10-17T01:30:59.061Z,20.75
2018-10-17T01:36:01.354Z,20.02
2018-10-17T01:41:04.008Z,19.85
2018-10-17T01:46:06.184Z,19.70
2018-10-17T01:51:08.528Z,22.10
2018-10-17T01:56:10.837Z,19.45
2018-10-17T02:01:13.226Z,21.30
2018-10-17T02:06:15.437Z,22.55
2018-10-17T02:11:17.785Z,23.57
2018-10-17T02:16:19.988Z,23.02
2018-10-17T02:21:22.241Z,19.95
2018-10-17T02:26:24.587Z,19.98
2018-10-17T02:31:26.868Z,20.50
2018-10-17T02:36:29.180Z,20.00
2018-10-17T02:41:31.480Z,18.98
2018-10-17T02:46:33.824Z,21.00
2018-10-17T02:51:36.092Z,20.82
2018-10-17T02:56:38.429Z,21.15
2018-10-17T03:01:40.726Z,21.02
2018-10-17T03:06:43.072Z,21.10
2018-10-17T03:11:45.341Z,20.80
2018-10-17T03:16:47.626Z,21.07
2018-10-17T03:21:49.987Z,22.10
2018-10-17T03:26:52.319Z,22.37
2018-10-17T03:31:54.636Z,22.30
2018-10-17T03:36:56.999Z,24.85
2018-10-17T03:41:59.270Z,23.83
2018-10-17T03:47:01.629Z,22.30
2018-10-17T03:52:04.522Z,22.93
2018-10-17T03:57:07.317Z,24.15
2018-10-17T04:02:09.680Z,25.32
2018-10-17T04:07:13.098Z,24.85
2018-10-17T04:12:15.658Z,21.30
2018-10-17T04:17:18.094Z,22.65
2018-10-17T04:22:20.537Z,23.05
2018-10-17T04:27:22.892Z,24.50
2018-10-17T04:32:25.288Z,23.35
2018-10-17T04:37:27.605Z,22.42
2018-10-17T04:42:30.720Z,25.80
2018-10-17T04:47:33.176Z,28.67
2018-10-17T04:52:35.488Z,24.75
2018-10-17T04:57:37.939Z,26.90
2018-10-17T05:02:41.731Z,22.73
2018-10-17T05:07:44.081Z,23.52
2018-10-17T05:12:46.434Z,22.00
2018-10-17T05:17:48.783Z,22.02
2018-10-17T05:22:51.679Z,23.30
2018-10-17T05:27:54.087Z,25.40
2018-10-17T05:32:56.465Z,23.22
2018-10-17T05:37:58.905Z,24.23
2018-10-17T05:43:01.275Z,24.92
2018-10-17T05:48:03.648Z,25.95
2018-10-17T05:53:06.101Z,26.05
2018-10-17T05:58:08.685Z,27.30
2018-10-17T06:03:11.063Z,23.40
2018-10-17T06:08:13.447Z,24.15
2018-10-17T06:13:15.791Z,23.35
2018-10-17T06:18:18.173Z,23.60
2018-10-17T06:23:20.528Z,24.57
2018-10-17T06:28:22.972Z,25.30
2018-10-17T06:33:25.270Z,24.77
2018-10-17T06:38:27.589Z,23.52
2018-10-17T06:43:30.052Z,22.60
2018-10-17T06:48:32.481Z,22.55
2018-10-17T06:53:34.790Z,22.50
2018-10-17T06:58:37.145Z,22.90
2018-10-17T07:03:39.755Z,22.73
2018-10-17T07:08:42.073Z,22.67
2018-10-17T07:13:44.421Z,22.70
2018-10-17T07:18:46.767Z,22.40
2018-10-17T07:23:49.103Z,22.55
2018-10-17T07:28:52.321Z,21.90
2018-10-17T07:33:54.614Z,23.00
2018-10-17T07:38:56.915Z,22.20
2018-10-17T07:43:59.220Z,24.05
2018-10-17T07:49:01.579Z,23.02
2018-10-17T07:54:03.967Z,22.55
2018-10-17T07:59:06.323Z,23.38
2018-10-17T08:04:08.685Z,22.95
2018-10-17T08:09:11.738Z,22.82
2018-10-17T08:14:14.197Z,21.77
2018-10-17T08:19:16.403Z,22.05
2018-10-17T08:24:18.827Z,21.55
2018-10-17T08:29:21.216Z,22.02
2018-10-17T08:34:23.529Z,21.95
2018-10-17T08:39:25.837Z,22.87
2018-10-17T08:44:29.000Z,21.52
2018-10-17T08:49:31.381Z,22.45
2018-10-17T08:54:33.673Z,22.37
2018-10-17T08:59:36.003Z,22.20
2018-10-17T09:04:38.328Z,22.13
2018-10-17T09:09:40.626Z,22.05
2018-10-17T09:14:42.932Z,22.37
2018-10-17T09:19:45.395Z,23.30
2018-10-17T09:24:47.605Z,22.80
2018-10-17T09:29:49.957Z,23.38
2018-10-17T09:34:53.256Z,23.18
2018-10-17T09:39:55.640Z,23.52
2018-10-17T09:44:57.940Z,23.32
2018-10-17T09:50:00.284Z,23.95
2018-10-17T09:55:02.743Z,24.55
2018-10-17T10:00:11.255Z,25.43
2018-10-17T10:05:13.533Z,28.40
2018-10-17T10:10:15.835Z,28.23
2018-10-17T10:15:18.150Z,27.42
2018-10-17T10:20:20.805Z,28.40
2018-10-17T10:25:23.194Z,27.52
2018-10-17T10:30:25.582Z,29.02
2018-10-17T10:35:28.111Z,30.30
2018-10-17T10:40:30.481Z,31.15
2018-10-17T10:45:32.928Z,33.02
2018-10-17T10:50:35.092Z,33.05
2018-10-17T10:55:37.425Z,32.05
2018-10-17T11:00:40.095Z,31.87
2018-10-17T11:05:42.603Z,32.15
2018-10-17T11:10:44.793Z,34.05
2018-10-17T11:15:47.095Z,32.60
2018-10-17T11:20:49.406Z,31.12
2018-10-17T11:25:51.723Z,31.70
2018-10-17T11:30:54.112Z,29.57
2018-10-17T11:35:56.438Z,29.45
2018-10-17T11:40:58.743Z,29.75
2018-10-17T11:46:01.054Z,29.52
2018-10-17T11:51:03.465Z,29.00
2018-10-17T11:56:05.775Z,28.47
2018-10-17T12:01:08.197Z,30.62
2018-10-17T12:06:10.645Z,28.47
2018-10-17T12:11:13.116Z,27.15
2018-10-17T12:16:15.426Z,25.20
2018-10-17T12:21:17.854Z,27.17
2018-10-17T12:26:20.089Z,23.60
2018-10-17T12:31:22.476Z,24.07
2018-10-17T12:36:24.810Z,24.00
2018-10-17T12:41:27.180Z,25.45
2018-10-17T12:46:29.485Z,25.02
2018-10-17T12:51:31.775Z,24.45
2018-10-17T12:56:34.069Z,25.10
2018-10-17T13:01:36.577Z,23.52
2018-10-17T13:06:39.090Z,25.43
2018-10-17T13:11:41.457Z,25.08
2018-10-17T13:16:43.729Z,27.13
2018-10-17T13:21:46.060Z,25.77
2018-10-17T13:26:48.437Z,26.60
2018-10-17T13:31:50.851Z,26.10
2018-10-17T13:36:53.195Z,24.57
2018-10-17T13:41:55.520Z,20.23
2018-10-17T13:46:57.882Z,23.55
2018-10-17T13:52:00.164Z,22.77
2018-10-17T13:57:02.584Z,20.82
2018-10-17T14:02:04.985Z,21.65
2018-10-17T14:07:07.378Z,19.52
2018-10-17T14:12:09.803Z,21.12
2018-10-17T14:17:13.076Z,20.88
2018-10-17T14:22:15.418Z,22.20
2018-10-17T14:27:17.772Z,22.67
2018-10-17T14:32:20.430Z,21.17
2018-10-17T14:37:22.751Z,21.50
2018-10-17T14:42:25.213Z,21.12
2018-10-17T14:47:27.560Z,20.23
2018-10-17T14:52:29.933Z,22.05
2018-10-17T14:57:32.326Z,20.57
2018-10-17T15:02:34.716Z,21.07
2018-10-17T15:07:37.137Z,21.10
2018-10-17T15:12:39.509Z,20.10
2018-10-17T15:17:41.834Z,19.30
2018-10-17T15:22:44.318Z,20.05
2018-10-17T15:27:46.750Z,22.60
2018-10-17T15:32:49.324Z,20.57
2018-10-17T15:37:52.368Z,20.52
2018-10-17T15:42:54.869Z,23.05
2018-10-17T15:47:57.291Z,22.67
2018-10-17T15:52:59.785Z,24.43
2018-10-17T15:58:02.360Z,23.77
2018-10-17T16:03:04.816Z,24.75
2018-10-17T16:08:07.192Z,24.02
2018-10-17T16:13:09.508Z,23.75
2018-10-17T16:18:12.258Z,23.77
2018-10-17T16:23:14.639Z,25.10
2018-10-17T16:28:18.926Z,25.10
2018-10-17T16:33:22.209Z,24.37
2018-10-17T16:38:24.591Z,26.10
2018-10-17T16:43:26.908Z,25.75
2018-10-17T16:48:29.913Z,26.70
2018-10-17T16:53:32.219Z,26.48
2018-10-17T16:58:34.741Z,26.93
2018-10-17T17:03:37.121Z,28.12
2018-10-17T17:08:39.497Z,28.40
2018-10-17T17:13:41.866Z,28.38
2018-10-17T17:18:44.657Z,26.33
2018-10-17T17:23:47.044Z,25.90
2018-10-17T17:28:50.493Z,26.30
2018-10-17T17:33:52.846Z,26.42
2018-10-17T17:38:55.189Z,26.93
2018-10-17T17:43:57.530Z,26.73
2018-10-17T17:48:59.880Z,27.27
2018-10-17T17:54:02.210Z,26.33
2018-10-17T17:59:04.941Z,26.12
2018-10-17T18:04:07.417Z,27.82
2018-10-17T18:09:11.114Z,28.27
2018-10-17T18:14:13.547Z,27.65
2018-10-17T18:19:15.887Z,28.52
2018-10-17T18:24:18.308Z,29.02
2018-10-17T18:29:20.612Z,29.65
2018-10-17T18:34:22.998Z,29.05
2018-10-17T18:39:25.384Z,29.25
2018-10-17T18:44:27.808Z,31.00
2018-10-17T18:49:30.112Z,27.37
2018-10-17T18:54:32.466Z,26.90
2018-10-17T18:59:34.799Z,27.22
2018-10-17T19:04:37.196Z,29.12
2018-10-17T19:09:41.861Z,30.10
2018-10-17T19:14:44.199Z,33.95
2018-10-17T19:19:46.599Z,35.00
2018-10-17T19:24:49.099Z,35.78
2018-10-17T19:29:51.368Z,35.50
2018-10-17T19:34:56.088Z,34.63
2018-10-17T19:39:58.418Z,31.23
2018-10-17T19:45:00.749Z,29.30
2018-10-17T19:50:03.305Z,31.07
2018-10-17T19:55:06.685Z,30.60
2018-10-17T20:00:11.153Z,34.33
2018-10-17T20:05:13.546Z,37.10
2018-10-17T20:10:15.962Z,33.98
2018-10-17T20:15:18.411Z,34.20
2018-10-17T20:20:20.666Z,33.92
2018-10-17T20:25:23.016Z,31.65
2018-10-17T20:30:25.334Z,31.73
2018-10-17T20:35:27.695Z,31.73
2018-10-17T20:40:29.996Z,31.27
2018-10-17T20:45:32.293Z,34.88
2018-10-17T20:50:34.818Z,36.60
2018-10-17T20:55:37.233Z,36.40
2018-10-17T21:00:39.648Z,35.25
2018-10-17T21:05:42.478Z,36.03
2018-10-17T21:10:44.805Z,36.88
2018-10-17T21:15:47.117Z,39.38
2018-10-17T21:20:49.451Z,39.75
2018-10-17T21:25:51.786Z,42.03
2018-10-17T21:30:54.124Z,43.08
2018-10-17T21:35:56.515Z,43.78
2018-10-17T21:40:58.950Z,42.43
2018-10-17T21:46:01.289Z,44.35
2018-10-17T21:51:03.718Z,44.67
2018-10-17T21:56:06.167Z,41.88
2018-10-17T22:01:09.065Z,37.63
2018-10-17T22:06:11.427Z,38.48
2018-10-17T22:11:13.764Z,36.17
2018-10-17T22:16:16.090Z,34.40
2018-10-17T22:21:18.375Z,35.10
2018-10-17T22:26:20.730Z,33.67
2018-10-17T22:31:23.056Z,34.27
2018-10-17T22:36:25.393Z,34.38
2018-10-17T22:41:27.706Z,34.65
2018-10-17T22:46:30.117Z,35.95
2018-10-17T22:51:32.443Z,35.65
2018-10-17T22:56:34.764Z,37.03
2018-10-17T23:01:37.588Z,40.83
2018-10-17T23:06:39.929Z,39.03
2018-10-17T23:11:42.919Z,37.48
2018-10-17T23:16:45.333Z,37.25
2018-10-17T23:21:47.658Z,40.55
2018-10-17T23:26:49.996Z,36.13
2018-10-17T23:31:52.323Z,37.48
2018-10-17T23:36:54.689Z,34.83
2018-10-17T23:41:57.124Z,36.80
2018-10-17T23:46:59.535Z,35.52
2018-10-17T23:52:01.850Z,34.45
2018-10-17T23:57:04.239Z,33.23
